createdAt,value
2022-08-17T00:00:43.678Z,21.23
2022-08-17T00:01:32.740Z,21.22
2022-08-17T00:02:30.359Z,21.22
2022-08-17T00:03:29.465Z,21.21
2022-08-17T00:04:29.623Z,21.21
2022-08-17T00:05:29.145Z,21.19
2022-08-17T00:06:29.627Z,21.20
2022-08-17T00:07:29.243Z,21.19
2022-08-17T00:08:29.623Z,21.20
2022-08-17T00:09:29.469Z,21.20
2022-08-17T00:10:29.303Z,21.21
2022-08-17T00:11:29.464Z,21.20
2022-08-17T00:12:44.421Z,21.18
2022-08-17T00:13:30.183Z,21.17
2022-08-17T00:14:29.348Z,21.17
2022-08-17T00:15:29.310Z,21.15
2022-08-17T00:16:55.544Z,21.14
2022-08-17T00:17:30.425Z,21.11
2022-08-17T00:19:02.183Z,21.10
2022-08-17T00:19:30.185Z,21.07
2022-08-17T00:20:32.034Z,21.05
2022-08-17T00:21:36.142Z,21.02
2022-08-17T00:22:33.778Z,21.00
2022-08-17T00:23:30.424Z,20.98
2022-08-17T00:24:30.058Z,20.95
2022-08-17T00:25:28.900Z,20.92
2022-08-17T00:26:43.162Z,20.89
2022-08-17T00:27:30.198Z,20.87
2022-08-17T00:28:28.826Z,20.84
2022-08-17T00:29:28.908Z,20.82
2022-08-17T00:30:28.979Z,20.81
2022-08-17T00:31:28.899Z,20.81
2022-08-17T00:33:13.602Z,20.81
2022-08-17T00:33:30.562Z,20.81
2022-08-17T00:34:51.100Z,20.80
2022-08-17T00:35:28.918Z,20.79
2022-08-17T00:36:29.045Z,20.77
2022-08-17T00:37:28.739Z,20.76
2022-08-17T00:38:29.300Z,20.76
2022-08-17T00:39:29.188Z,20.76
2022-08-17T00:40:44.586Z,20.75
2022-08-17T00:41:29.780Z,20.75
2022-08-17T00:42:31.097Z,20.75
2022-08-17T00:43:28.878Z,20.74
2022-08-17T00:44:30.391Z,20.73
2022-08-17T00:45:33.038Z,20.71
2022-08-17T00:46:28.662Z,20.71
2022-08-17T00:47:28.823Z,20.70
2022-08-17T00:48:29.253Z,20.70
2022-08-17T00:49:30.099Z,20.69
2022-08-17T00:50:28.660Z,20.69
2022-08-17T00:51:28.832Z,20.70
2022-08-17T00:52:28.660Z,20.71
2022-08-17T00:53:28.820Z,20.71
2022-08-17T00:54:28.741Z,20.69
2022-08-17T00:55:28.821Z,20.66
2022-08-17T00:56:28.992Z,20.62
2022-08-17T00:57:29.144Z,20.58
2022-08-17T00:58:35.939Z,20.55
2022-08-17T00:59:29.782Z,20.51
2022-08-17T01:00:28.703Z,20.48
2022-08-17T01:01:28.859Z,20.45
2022-08-17T01:02:28.504Z,20.42
2022-08-17T01:03:28.403Z,20.38
2022-08-17T01:04:28.662Z,20.33
2022-08-17T01:05:28.586Z,20.28
2022-08-17T01:06:28.704Z,20.23
2022-08-17T01:07:28.823Z,20.20
2022-08-17T01:08:28.662Z,20.17
2022-08-17T01:09:28.332Z,20.13
2022-08-17T01:10:59.551Z,20.09
2022-08-17T01:11:29.784Z,20.03
2022-08-17T01:12:28.382Z,19.97
2022-08-17T01:13:28.502Z,19.93
2022-08-17T01:14:29.344Z,19.89
2022-08-17T01:15:28.344Z,19.88
2022-08-17T01:16:28.375Z,19.86
2022-08-17T01:17:28.263Z,19.86
2022-08-17T01:18:28.353Z,19.85
2022-08-17T01:19:28.504Z,19.85
2022-08-17T01:20:28.663Z,19.86
2022-08-17T01:21:28.344Z,19.87
2022-08-17T01:22:28.184Z,19.88
2022-08-17T01:23:28.185Z,19.91
2022-08-17T01:24:28.343Z,19.92
2022-08-17T01:25:28.188Z,19.94
2022-08-17T01:26:28.134Z,19.95
2022-08-17T01:27:28.104Z,19.95
2022-08-17T01:28:33.482Z,19.95
2022-08-17T01:29:29.785Z,19.95
2022-08-17T01:30:58.136Z,19.96
2022-08-17T01:31:28.992Z,19.96
2022-08-17T01:32:28.384Z,19.97
2022-08-17T01:33:28.184Z,19.97
2022-08-17T01:34:43.553Z,19.98
2022-08-17T01:35:30.428Z,19.99
2022-08-17T01:36:28.028Z,19.99
2022-08-17T01:37:29.176Z,19.97
2022-08-17T01:38:28.344Z,19.95
2022-08-17T01:39:28.221Z,19.93
2022-08-17T01:40:28.338Z,19.89
2022-08-17T01:41:28.189Z,19.85
2022-08-17T01:42:28.117Z,19.82
2022-08-17T01:43:27.978Z,19.79
2022-08-17T01:44:28.349Z,19.77
2022-08-17T01:45:27.966Z,19.74
2022-08-17T01:46:28.029Z,19.71
2022-08-17T01:47:28.185Z,19.67
2022-08-17T01:48:28.028Z,19.65
2022-08-17T01:49:48.987Z,19.63
2022-08-17T01:50:28.018Z,19.61
2022-08-17T01:51:28.914Z,19.60
2022-08-17T01:52:28.025Z,19.60
2022-08-17T01:53:29.888Z,19.60
2022-08-17T01:54:27.708Z,19.60
2022-08-17T01:55:28.217Z,19.59
2022-08-17T01:56:28.018Z,19.58
2022-08-17T01:57:27.869Z,19.57
2022-08-17T01:58:27.783Z,19.55
2022-08-17T01:59:27.699Z,19.53
2022-08-17T02:00:27.854Z,19.50
2022-08-17T02:01:28.652Z,19.47
2022-08-17T02:02:30.331Z,19.45
2022-08-17T02:03:27.863Z,19.42
2022-08-17T02:04:27.940Z,19.41
2022-08-17T02:05:27.619Z,19.40
2022-08-17T02:06:28.470Z,19.40
2022-08-17T02:07:27.639Z,19.40
2022-08-17T02:08:37.268Z,19.39
2022-08-17T02:09:29.717Z,19.39
2022-08-17T02:10:33.750Z,19.39
2022-08-17T02:11:28.592Z,19.39
2022-08-17T02:12:37.887Z,19.38
2022-08-17T02:13:28.580Z,19.38
2022-08-17T02:14:29.942Z,19.37
2022-08-17T02:15:27.541Z,19.37
2022-08-17T02:16:27.701Z,19.37
2022-08-17T02:17:28.581Z,19.37
2022-08-17T02:18:27.701Z,19.38
2022-08-17T02:19:27.544Z,19.38
2022-08-17T02:20:41.965Z,19.37
2022-08-17T02:21:28.502Z,19.37
2022-08-17T02:22:28.033Z,19.36
2022-08-17T02:23:27.324Z,19.36
2022-08-17T02:24:58.600Z,19.35
2022-08-17T02:25:28.824Z,19.34
2022-08-17T02:26:27.391Z,19.33
2022-08-17T02:27:27.547Z,19.32
2022-08-17T02:28:27.704Z,19.31
2022-08-17T02:29:27.324Z,19.30
2022-08-17T02:30:59.954Z,19.30
2022-08-17T02:31:29.472Z,19.29
2022-08-17T02:32:27.815Z,19.29
2022-08-17T02:33:42.009Z,19.30
2022-08-17T02:34:28.374Z,19.30
2022-08-17T02:35:27.308Z,19.30
2022-08-17T02:36:27.580Z,19.30
2022-08-17T02:37:27.556Z,19.28
2022-08-17T02:38:27.704Z,19.26
2022-08-17T02:39:27.331Z,19.23
2022-08-17T02:40:36.158Z,19.20
2022-08-17T02:41:28.184Z,19.18
2022-08-17T02:42:28.378Z,19.16
2022-08-17T02:43:27.386Z,19.16
2022-08-17T02:44:35.508Z,19.15
2022-08-17T02:45:28.187Z,19.14
2022-08-17T02:46:27.388Z,19.14
2022-08-17T02:47:27.063Z,19.13
2022-08-17T02:48:30.871Z,19.11
2022-08-17T02:49:26.999Z,19.10
2022-08-17T02:50:27.422Z,19.09
2022-08-17T02:51:27.225Z,19.07
2022-08-17T02:52:43.601Z,19.07
2022-08-17T02:53:27.956Z,19.05
2022-08-17T02:54:41.509Z,19.03
2022-08-17T02:55:28.183Z,19.01
2022-08-17T02:56:27.224Z,18.98
2022-08-17T02:57:26.986Z,18.95
2022-08-17T02:58:34.612Z,18.94
2022-08-17T02:59:28.016Z,18.92
2022-08-17T03:00:27.386Z,18.89
2022-08-17T03:01:26.884Z,18.88
2022-08-17T03:02:26.951Z,18.86
2022-08-17T03:03:26.903Z,18.84
2022-08-17T03:04:48.104Z,18.83
2022-08-17T03:05:26.899Z,18.81
2022-08-17T03:06:26.766Z,18.79
2022-08-17T03:07:26.906Z,18.79
2022-08-17T03:08:26.745Z,18.81
2022-08-17T03:09:27.228Z,18.82
2022-08-17T03:10:26.913Z,18.83
2022-08-17T03:11:29.624Z,18.84
2022-08-17T03:12:26.748Z,18.84
2022-08-17T03:13:27.904Z,18.85
2022-08-17T03:14:26.648Z,18.85
2022-08-17T03:15:26.946Z,18.84
2022-08-17T03:16:26.899Z,18.83
2022-08-17T03:17:47.861Z,18.84
2022-08-17T03:18:26.588Z,18.83
2022-08-17T03:19:26.898Z,18.81
2022-08-17T03:20:27.099Z,18.78
2022-08-17T03:21:26.668Z,18.76
2022-08-17T03:22:36.263Z,18.75
2022-08-17T03:23:29.671Z,18.74
2022-08-17T03:24:28.931Z,18.71
2022-08-17T03:25:26.906Z,18.70
2022-08-17T03:26:29.615Z,18.69
2022-08-17T03:27:26.905Z,18.69
2022-08-17T03:28:26.571Z,18.69
2022-08-17T03:29:26.899Z,18.71
2022-08-17T03:30:26.743Z,18.71
2022-08-17T03:31:26.580Z,18.72
2022-08-17T03:32:26.499Z,18.73
2022-08-17T03:33:26.983Z,18.75
2022-08-17T03:34:26.503Z,18.75
2022-08-17T03:35:26.911Z,18.77
2022-08-17T03:36:26.421Z,18.79
2022-08-17T03:37:26.581Z,18.81
2022-08-17T03:38:26.421Z,18.81
2022-08-17T03:39:26.721Z,18.81
2022-08-17T03:40:55.317Z,18.81
2022-08-17T03:41:27.310Z,18.81
2022-08-17T03:42:32.413Z,18.82
2022-08-17T03:43:27.300Z,18.81
2022-08-17T03:44:26.420Z,18.80
2022-08-17T03:45:26.262Z,18.79
2022-08-17T03:46:34.198Z,18.79
2022-08-17T03:47:27.235Z,18.78
2022-08-17T03:48:26.462Z,18.77
2022-08-17T03:49:26.435Z,18.75
2022-08-17T03:50:26.291Z,18.73
2022-08-17T03:51:26.263Z,18.71
2022-08-17T03:52:27.161Z,18.70
2022-08-17T03:53:26.175Z,18.69
2022-08-17T03:54:26.183Z,18.69
2022-08-17T03:55:32.925Z,18.68
2022-08-17T03:56:27.255Z,18.68
2022-08-17T03:57:26.721Z,18.69
2022-08-17T03:58:26.460Z,18.69
2022-08-17T03:59:26.587Z,18.69
2022-08-17T04:00:26.103Z,18.70
2022-08-17T04:01:27.356Z,18.71
2022-08-17T04:02:26.422Z,18.73
2022-08-17T04:03:27.067Z,18.75
2022-08-17T04:04:27.769Z,18.75
2022-08-17T04:05:26.306Z,18.75
2022-08-17T04:06:26.274Z,18.74
2022-08-17T04:07:26.270Z,18.73
2022-08-17T04:08:26.106Z,18.71
2022-08-17T04:09:27.224Z,18.71
2022-08-17T04:10:26.569Z,18.72
2022-08-17T04:11:26.204Z,18.74
2022-08-17T04:12:26.103Z,18.77
2022-08-17T04:13:25.945Z,18.79
2022-08-17T04:14:25.925Z,18.81
2022-08-17T04:15:25.986Z,18.83
2022-08-17T04:16:25.865Z,18.84
2022-08-17T04:17:25.991Z,18.86
2022-08-17T04:18:25.866Z,18.88
2022-08-17T04:19:26.596Z,18.90
2022-08-17T04:20:25.944Z,18.91
2022-08-17T04:21:26.105Z,18.92
2022-08-17T04:22:31.818Z,18.93
2022-08-17T04:23:26.743Z,18.93
2022-08-17T04:24:26.427Z,18.93
2022-08-17T04:25:25.945Z,18.91
2022-08-17T04:26:53.156Z,18.89
2022-08-17T04:27:26.913Z,18.87
2022-08-17T04:28:25.783Z,18.86
2022-08-17T04:29:25.979Z,18.86
2022-08-17T04:30:26.745Z,18.85
2022-08-17T04:31:25.988Z,18.85
2022-08-17T04:33:04.895Z,18.86
2022-08-17T04:33:26.922Z,18.87
2022-08-17T04:34:26.104Z,18.89
2022-08-17T04:35:25.945Z,18.90
2022-08-17T04:36:25.558Z,18.91
2022-08-17T04:37:26.267Z,18.92
2022-08-17T04:38:25.608Z,18.93
2022-08-17T04:39:27.317Z,18.95
2022-08-17T04:40:27.163Z,18.97
2022-08-17T04:41:25.664Z,18.99
2022-08-17T04:42:25.605Z,19.00
2022-08-17T04:43:25.617Z,19.01
2022-08-17T04:44:36.862Z,19.01
2022-08-17T04:45:26.659Z,19.00
2022-08-17T04:46:26.517Z,19.00
2022-08-17T04:47:26.267Z,19.00
2022-08-17T04:48:33.388Z,19.00
2022-08-17T04:49:26.420Z,19.00
2022-08-17T04:50:25.692Z,18.99
2022-08-17T04:51:25.371Z,19.00
2022-08-17T04:52:43.056Z,19.01
2022-08-17T04:53:28.821Z,19.02
2022-08-17T04:54:25.464Z,19.03
2022-08-17T04:55:27.631Z,19.04
2022-08-17T04:56:25.303Z,19.04
2022-08-17T04:57:25.669Z,19.05
2022-08-17T04:58:25.784Z,19.06
2022-08-17T04:59:25.622Z,19.08
2022-08-17T05:00:25.263Z,19.10
2022-08-17T05:01:25.657Z,19.13
2022-08-17T05:02:25.230Z,19.15
2022-08-17T05:03:25.622Z,19.17
2022-08-17T05:04:34.539Z,19.17
2022-08-17T05:05:26.596Z,19.18
2022-08-17T05:06:25.389Z,19.19
2022-08-17T05:07:28.370Z,19.22
2022-08-17T05:08:26.420Z,19.24
2022-08-17T05:09:25.302Z,19.25
2022-08-17T05:10:25.232Z,19.27
2022-08-17T05:11:25.300Z,19.29
2022-08-17T05:12:25.301Z,19.31
2022-08-17T05:13:25.303Z,19.33
2022-08-17T05:14:33.639Z,19.35
2022-08-17T05:15:26.085Z,19.36
2022-08-17T05:16:25.413Z,19.39
2022-08-17T05:17:25.301Z,19.41
2022-08-17T05:18:25.794Z,19.44
2022-08-17T05:19:25.064Z,19.47
2022-08-17T05:20:26.181Z,19.50
2022-08-17T05:21:25.312Z,19.53
2022-08-17T05:22:25.462Z,19.57
2022-08-17T05:23:24.984Z,19.58
2022-08-17T05:24:38.713Z,19.61
2022-08-17T05:25:26.187Z,19.64
2022-08-17T05:26:26.350Z,19.67
2022-08-17T05:27:30.809Z,19.71
2022-08-17T05:28:27.360Z,19.75
2022-08-17T05:29:35.633Z,19.78
2022-08-17T05:30:25.854Z,19.80
2022-08-17T05:31:27.543Z,19.82
2022-08-17T05:32:37.212Z,19.84
2022-08-17T05:33:25.948Z,19.86
2022-08-17T05:34:25.065Z,19.87
2022-08-17T05:35:25.066Z,19.90
2022-08-17T05:36:42.047Z,19.93
2022-08-17T05:37:26.035Z,19.96
2022-08-17T05:38:25.893Z,19.98
2022-08-17T05:39:24.821Z,20.00
2022-08-17T05:40:25.156Z,20.03
2022-08-17T05:41:24.984Z,20.05
2022-08-17T05:42:25.145Z,20.08
2022-08-17T05:43:24.987Z,20.11
2022-08-17T05:44:24.825Z,20.14
2022-08-17T05:45:54.246Z,20.17
2022-08-17T05:46:25.934Z,20.19
2022-08-17T05:47:25.305Z,20.23
2022-08-17T05:48:35.429Z,20.31
2022-08-17T05:49:25.943Z,20.42
2022-08-17T05:50:27.159Z,20.55
2022-08-17T05:51:25.946Z,20.68
2022-08-17T05:52:24.665Z,20.78
2022-08-17T05:53:24.587Z,20.86
2022-08-17T05:54:24.866Z,20.95
2022-08-17T05:55:24.991Z,21.05
2022-08-17T05:56:30.036Z,21.15
2022-08-17T05:57:25.791Z,21.24
2022-08-17T05:58:24.823Z,21.32
2022-08-17T05:59:24.672Z,21.39
2022-08-17T06:00:30.304Z,21.47
2022-08-17T06:01:25.499Z,21.60
2022-08-17T06:02:32.501Z,21.72
2022-08-17T06:03:24.417Z,21.82
2022-08-17T06:04:24.859Z,21.88
2022-08-17T06:05:24.425Z,21.91
2022-08-17T06:06:25.322Z,21.93
2022-08-17T06:07:25.626Z,21.95
2022-08-17T06:08:24.905Z,21.98
2022-08-17T06:09:28.921Z,22.02
2022-08-17T06:10:25.547Z,22.06
2022-08-17T06:11:24.978Z,22.10
2022-08-17T06:12:24.826Z,22.15
2022-08-17T06:13:24.665Z,22.19
2022-08-17T06:14:24.349Z,22.24
2022-08-17T06:15:25.672Z,22.28
2022-08-17T06:16:32.842Z,22.31
2022-08-17T06:17:25.460Z,22.37
2022-08-17T06:18:24.500Z,22.46
2022-08-17T06:19:24.341Z,22.58
2022-08-17T06:20:26.741Z,22.70
2022-08-17T06:21:30.494Z,22.79
2022-08-17T06:22:25.181Z,22.90
2022-08-17T06:24:54.916Z,22.54
2022-08-17T06:25:33.702Z,22.54
2022-08-17T06:26:37.288Z,22.73
2022-08-17T06:27:34.674Z,22.84
2022-08-17T06:28:33.602Z,22.90
2022-08-17T06:29:33.622Z,22.94
2022-08-17T06:30:58.629Z,22.95
2022-08-17T06:31:34.502Z,22.95
2022-08-17T06:32:33.834Z,22.96
2022-08-17T06:33:33.622Z,22.95
2022-08-17T06:34:33.784Z,22.95
2022-08-17T06:35:34.136Z,22.95
2022-08-17T06:36:33.625Z,22.94
2022-08-17T06:37:33.363Z,22.95
2022-08-17T06:38:36.959Z,22.99
2022-08-17T06:39:33.385Z,23.05
2022-08-17T06:40:35.436Z,23.11
2022-08-17T06:41:33.334Z,23.17
2022-08-17T06:43:00.818Z,23.27
2022-08-17T06:43:34.903Z,23.39
2022-08-17T06:44:43.211Z,23.48
2022-08-17T06:45:34.343Z,23.55
2022-08-17T06:46:33.304Z,23.64
2022-08-17T06:47:33.305Z,23.75
2022-08-17T06:48:34.455Z,23.87
2022-08-17T06:49:33.172Z,23.98
2022-08-17T06:50:33.822Z,24.06
2022-08-17T06:51:33.385Z,24.09
2022-08-17T06:52:45.726Z,24.11
2022-08-17T06:53:34.156Z,24.13
2022-08-17T06:54:34.464Z,24.10
2022-08-17T06:55:37.852Z,24.04
2022-08-17T06:56:53.569Z,23.97
2022-08-17T06:57:34.588Z,23.92
2022-08-17T06:58:33.786Z,23.86
2022-08-17T06:59:47.163Z,23.83
2022-08-17T07:00:34.462Z,23.83
2022-08-17T07:01:33.674Z,23.84
2022-08-17T07:02:51.537Z,23.86
2022-08-17T07:03:34.097Z,23.90
2022-08-17T07:04:33.466Z,23.99
2022-08-17T07:05:33.186Z,24.11
2022-08-17T07:06:33.155Z,24.23
2022-08-17T07:07:34.266Z,24.31
2022-08-17T07:08:35.315Z,24.37
2022-08-17T07:09:36.089Z,24.41
2022-08-17T07:10:34.967Z,24.44
2022-08-17T07:11:35.311Z,24.46
2022-08-17T07:12:36.411Z,24.48
2022-08-17T07:13:34.812Z,24.48
2022-08-17T07:14:36.945Z,24.48
2022-08-17T07:15:32.861Z,24.51
2022-08-17T07:16:32.921Z,24.57
2022-08-17T07:17:47.588Z,24.62
2022-08-17T07:18:34.118Z,24.63
2022-08-17T07:19:33.023Z,24.58
2022-08-17T07:20:33.143Z,24.56
2022-08-17T07:21:32.820Z,24.55
2022-08-17T07:22:50.563Z,24.56
2022-08-17T07:23:33.731Z,24.60
2022-08-17T07:24:32.828Z,24.64
2022-08-17T07:25:32.822Z,24.67
2022-08-17T07:26:32.820Z,24.70
2022-08-17T07:27:33.948Z,24.72
2022-08-17T07:28:33.151Z,24.73
2022-08-17T07:29:32.981Z,24.75
2022-08-17T07:30:45.604Z,24.74
2022-08-17T07:31:33.784Z,24.71
2022-08-17T07:32:32.671Z,24.70
2022-08-17T07:33:32.997Z,24.70
2022-08-17T07:34:32.821Z,24.70
2022-08-17T07:35:40.791Z,24.72
2022-08-17T07:36:33.811Z,24.74
2022-08-17T07:37:32.663Z,24.77
2022-08-17T07:38:32.513Z,24.79
2022-08-17T07:39:32.714Z,24.80
2022-08-17T07:40:32.535Z,24.81
2022-08-17T07:41:53.505Z,24.81
2022-08-17T07:42:34.341Z,24.83
2022-08-17T07:43:32.444Z,24.85
2022-08-17T07:44:32.824Z,24.87
2022-08-17T07:45:32.425Z,24.91
2022-08-17T07:46:32.503Z,24.96
2022-08-17T07:47:32.421Z,25.00
2022-08-17T07:48:32.503Z,25.04
2022-08-17T07:49:32.666Z,25.05
2022-08-17T07:50:32.503Z,25.08
2022-08-17T07:51:32.355Z,25.10
2022-08-17T07:52:51.910Z,25.13
2022-08-17T07:53:33.625Z,25.17
2022-08-17T07:54:32.346Z,25.22
2022-08-17T07:55:32.425Z,25.25
2022-08-17T07:56:34.500Z,25.29
2022-08-17T07:57:32.664Z,25.32
2022-08-17T07:58:33.785Z,25.33
2022-08-17T07:59:33.369Z,25.36
2022-08-17T08:00:33.013Z,25.38
2022-08-17T08:01:41.582Z,25.42
2022-08-17T08:02:33.839Z,25.46
2022-08-17T08:03:32.344Z,25.52
2022-08-17T08:05:49.879Z,25.61
2022-08-17T08:06:33.465Z,25.62
2022-08-17T08:07:32.664Z,25.63
2022-08-17T08:08:32.316Z,25.64
2022-08-17T08:09:32.117Z,25.65
2022-08-17T08:10:32.522Z,25.69
2022-08-17T08:11:32.112Z,25.71
2022-08-17T08:12:33.600Z,25.74
2022-08-17T08:13:32.424Z,25.75
2022-08-17T08:14:33.147Z,25.75
2022-08-17T08:15:32.113Z,25.75
2022-08-17T08:16:32.499Z,25.76
2022-08-17T08:17:31.992Z,25.78
2022-08-17T08:18:45.927Z,25.79
2022-08-17T08:19:33.120Z,25.80
2022-08-17T08:20:51.379Z,25.81
2022-08-17T08:21:32.980Z,25.83
2022-08-17T08:22:33.021Z,25.83
2022-08-17T08:23:32.026Z,25.85
2022-08-17T08:24:32.184Z,25.87
2022-08-17T08:25:32.022Z,25.89
2022-08-17T08:26:32.180Z,25.91
2022-08-17T08:27:32.181Z,25.92
2022-08-17T08:28:34.189Z,25.94
2022-08-17T08:29:38.314Z,25.95
2022-08-17T08:30:33.101Z,25.97
2022-08-17T08:31:31.862Z,25.98
2022-08-17T08:32:31.782Z,25.99
2022-08-17T08:33:31.946Z,26.01
2022-08-17T08:34:59.043Z,26.02
2022-08-17T08:35:33.302Z,26.03
2022-08-17T08:37:14.526Z,26.04
2022-08-17T08:37:37.885Z,26.06
2022-08-17T08:38:32.986Z,26.08
2022-08-17T08:39:32.051Z,26.13
2022-08-17T08:40:31.722Z,26.19
2022-08-17T08:41:32.862Z,26.22
2022-08-17T08:42:31.866Z,26.26
2022-08-17T08:43:32.047Z,26.28
2022-08-17T08:45:00.434Z,26.29
2022-08-17T08:45:32.622Z,26.29
2022-08-17T08:46:32.863Z,26.28
2022-08-17T08:47:31.787Z,26.27
2022-08-17T08:48:56.627Z,26.26
2022-08-17T08:50:02.037Z,26.28
2022-08-17T08:50:38.007Z,26.31
2022-08-17T08:51:32.542Z,26.36
2022-08-17T08:52:31.722Z,26.39
2022-08-17T08:53:31.545Z,26.41
2022-08-17T08:54:31.865Z,26.42
2022-08-17T08:55:31.877Z,26.43
2022-08-17T08:56:32.856Z,26.42
2022-08-17T08:57:34.344Z,26.40
2022-08-17T08:58:41.452Z,26.37
2022-08-17T08:59:32.437Z,26.35
2022-08-17T09:00:31.559Z,26.32
2022-08-17T09:01:31.562Z,26.30
2022-08-17T09:02:34.857Z,26.29
2022-08-17T09:03:51.499Z,26.28
2022-08-17T09:04:44.949Z,26.27
2022-08-17T09:05:32.837Z,26.26
2022-08-17T09:06:38.875Z,26.25
2022-08-17T09:07:32.510Z,26.23
2022-08-17T09:08:32.058Z,26.22
2022-08-17T09:09:31.439Z,26.21
2022-08-17T09:10:31.542Z,26.20
2022-08-17T09:11:31.700Z,26.19
2022-08-17T09:12:32.773Z,26.18
2022-08-17T09:13:31.380Z,26.17
2022-08-17T09:14:32.392Z,26.16
2022-08-17T09:15:32.220Z,26.16
2022-08-17T09:16:31.580Z,26.16
2022-08-17T09:17:31.558Z,26.19
2022-08-17T09:18:59.112Z,26.21
2022-08-17T09:19:32.661Z,26.23
2022-08-17T09:20:31.342Z,26.23
2022-08-17T09:21:33.925Z,26.24
2022-08-17T09:22:31.713Z,26.24
2022-08-17T09:23:31.224Z,26.24
2022-08-17T09:24:31.222Z,26.25
2022-08-17T09:25:31.711Z,26.27
2022-08-17T09:26:31.224Z,26.28
2022-08-17T09:27:31.255Z,26.29
2022-08-17T09:28:31.302Z,26.29
2022-08-17T09:29:31.169Z,26.28
2022-08-17T09:30:31.302Z,26.26
2022-08-17T09:31:33.492Z,26.27
2022-08-17T09:32:31.127Z,26.27
2022-08-17T09:33:31.383Z,26.28
2022-08-17T09:34:32.068Z,26.28
2022-08-17T09:35:36.801Z,26.27
2022-08-17T09:36:32.023Z,26.26
2022-08-17T09:37:31.385Z,26.25
2022-08-17T09:38:32.643Z,26.24
2022-08-17T09:39:31.115Z,26.23
2022-08-17T09:40:30.984Z,26.21
2022-08-17T09:41:31.255Z,26.21
2022-08-17T09:42:30.905Z,26.21
2022-08-17T09:43:32.670Z,26.22
2022-08-17T09:44:30.985Z,26.23
2022-08-17T09:45:33.085Z,26.25
2022-08-17T09:46:30.926Z,26.27
2022-08-17T09:47:30.905Z,26.27
2022-08-17T09:48:31.065Z,26.27
2022-08-17T09:49:30.941Z,26.28
2022-08-17T09:51:03.553Z,26.28
2022-08-17T09:51:32.025Z,26.33
2022-08-17T09:52:30.908Z,26.42
2022-08-17T09:53:31.870Z,26.59
2022-08-17T09:54:39.840Z,26.75
2022-08-17T09:55:31.788Z,26.85
2022-08-17T09:56:31.895Z,26.87
2022-08-17T09:57:32.029Z,26.84
2022-08-17T09:58:30.943Z,26.80
2022-08-17T09:59:36.539Z,26.76
2022-08-17T10:00:31.865Z,26.71
2022-08-17T10:01:31.145Z,26.66
2022-08-17T10:02:30.599Z,26.67
2022-08-17T10:03:30.739Z,26.69
2022-08-17T10:04:30.581Z,26.70
2022-08-17T10:05:31.085Z,26.70
2022-08-17T10:06:30.746Z,26.70
2022-08-17T10:07:31.060Z,26.69
2022-08-17T10:08:30.899Z,26.67
2022-08-17T10:09:30.650Z,26.64
2022-08-17T10:10:32.323Z,26.59
2022-08-17T10:11:33.714Z,26.55
2022-08-17T10:12:30.601Z,26.52
2022-08-17T10:13:30.741Z,26.49
2022-08-17T10:14:37.929Z,26.47
2022-08-17T10:15:31.471Z,26.45
2022-08-17T10:16:31.862Z,26.45
2022-08-17T10:17:30.742Z,26.44
2022-08-17T10:18:33.196Z,26.43
2022-08-17T10:19:30.445Z,26.42
2022-08-17T10:20:30.423Z,26.39
2022-08-17T10:21:30.742Z,26.37
2022-08-17T10:22:34.653Z,26.34
2022-08-17T10:23:30.516Z,26.32
2022-08-17T10:24:30.586Z,26.31
2022-08-17T10:25:53.673Z,26.31
2022-08-17T10:26:40.581Z,26.34
2022-08-17T10:27:31.384Z,26.38
2022-08-17T10:28:30.652Z,26.47
2022-08-17T10:29:30.264Z,26.56
2022-08-17T10:30:31.383Z,26.68
2022-08-17T10:31:35.367Z,26.83
2022-08-17T10:32:31.547Z,26.92
2022-08-17T10:33:30.425Z,26.98
2022-08-17T10:34:30.193Z,26.98
2022-08-17T10:35:31.704Z,26.94
2022-08-17T10:36:30.675Z,26.88
2022-08-17T10:37:30.285Z,26.83
2022-08-17T10:38:30.623Z,26.79
2022-08-17T10:39:30.467Z,26.75
2022-08-17T10:40:30.345Z,26.71
2022-08-17T10:41:30.110Z,26.68
2022-08-17T10:42:32.690Z,26.65
2022-08-17T10:43:30.745Z,26.61
2022-08-17T10:44:37.146Z,26.57
2022-08-17T10:45:31.267Z,26.53
2022-08-17T10:46:31.810Z,26.49
2022-08-17T10:47:42.287Z,26.46
2022-08-17T10:48:31.367Z,26.59
2022-08-17T10:49:30.219Z,26.98
2022-08-17T10:50:30.028Z,27.40
2022-08-17T10:51:31.513Z,27.79
2022-08-17T10:52:30.019Z,28.05
2022-08-17T10:53:30.421Z,28.14
2022-08-17T10:54:30.270Z,28.11
2022-08-17T10:55:31.060Z,27.99
2022-08-17T10:56:29.948Z,27.84
2022-08-17T10:57:30.106Z,27.69
2022-08-17T10:58:30.265Z,27.58
2022-08-17T10:59:30.419Z,27.62
2022-08-17T11:00:29.859Z,27.72
2022-08-17T11:01:30.189Z,27.76
2022-08-17T11:02:29.956Z,27.72
2022-08-17T11:03:30.050Z,27.61
2022-08-17T11:04:29.783Z,27.47
2022-08-17T11:05:30.580Z,27.32
2022-08-17T11:06:29.761Z,27.19
2022-08-17T11:07:30.260Z,27.08
2022-08-17T11:08:29.730Z,26.99
2022-08-17T11:09:51.222Z,26.90
2022-08-17T11:10:29.746Z,26.83
2022-08-17T11:11:30.049Z,26.78
2022-08-17T11:12:29.670Z,26.76
2022-08-17T11:13:29.792Z,26.76
2022-08-17T11:14:29.942Z,26.76
2022-08-17T11:15:30.897Z,26.77
2022-08-17T11:16:29.837Z,26.77
2022-08-17T11:17:29.782Z,26.77
2022-08-17T11:18:29.723Z,26.76
2022-08-17T11:19:30.795Z,26.74
2022-08-17T11:20:29.942Z,26.73
2022-08-17T11:21:30.743Z,26.70
2022-08-17T11:22:33.375Z,26.67
2022-08-17T11:23:29.626Z,26.65
2022-08-17T11:24:29.946Z,26.62
2022-08-17T11:25:29.786Z,26.59
2022-08-17T11:26:29.943Z,26.56
2022-08-17T11:27:29.587Z,26.55
2022-08-17T11:28:29.945Z,26.55
2022-08-17T11:29:30.182Z,26.82
2022-08-17T11:30:29.623Z,27.07
2022-08-17T11:31:38.680Z,27.22
2022-08-17T11:32:30.423Z,27.29
2022-08-17T11:33:50.516Z,27.31
2022-08-17T11:34:29.387Z,27.29
2022-08-17T11:35:30.746Z,27.24
2022-08-17T11:36:29.366Z,27.18
2022-08-17T11:37:29.776Z,27.11
2022-08-17T11:38:29.358Z,27.04
2022-08-17T11:39:29.438Z,26.98
2022-08-17T11:40:29.388Z,26.92
2022-08-17T11:41:29.473Z,26.87
2022-08-17T11:42:29.396Z,26.82
2022-08-17T11:43:29.459Z,26.78
2022-08-17T11:44:29.556Z,26.74
2022-08-17T11:45:32.050Z,26.72
2022-08-17T11:46:29.299Z,26.70
2022-08-17T11:47:29.469Z,26.69
2022-08-17T11:48:29.522Z,26.68
2022-08-17T11:49:31.492Z,26.66
2022-08-17T11:50:29.459Z,26.64
2022-08-17T11:51:30.308Z,26.63
2022-08-17T11:52:29.623Z,26.61
2022-08-17T11:53:29.459Z,26.61
2022-08-17T11:54:34.151Z,26.60
2022-08-17T11:55:41.751Z,26.62
2022-08-17T11:56:30.580Z,26.65
2022-08-17T11:57:30.457Z,26.67
2022-08-17T11:58:29.139Z,26.67
2022-08-17T11:59:29.310Z,26.65
2022-08-17T12:00:29.062Z,26.64
2022-08-17T12:01:31.700Z,26.62
2022-08-17T12:02:29.843Z,26.60
2022-08-17T12:03:29.175Z,26.59
2022-08-17T12:04:29.309Z,26.57
2022-08-17T12:05:51.543Z,26.55
2022-08-17T12:06:30.378Z,26.55
2022-08-17T12:07:29.462Z,26.55
2022-08-17T12:08:28.982Z,26.56
2022-08-17T12:09:28.982Z,26.57
2022-08-17T12:10:28.983Z,26.59
2022-08-17T12:11:58.767Z,26.60
2022-08-17T12:12:30.262Z,26.62
2022-08-17T12:13:33.964Z,26.64
2022-08-17T12:15:05.730Z,26.64
2022-08-17T12:15:29.873Z,26.63
2022-08-17T12:16:28.825Z,26.61
2022-08-17T12:17:41.471Z,26.60
2022-08-17T12:18:29.946Z,26.57
2022-08-17T12:19:30.105Z,26.56
2022-08-17T12:20:28.785Z,26.54
2022-08-17T12:21:29.475Z,26.63
2022-08-17T12:22:28.982Z,26.81
2022-08-17T12:23:28.836Z,26.99
2022-08-17T12:24:28.744Z,27.11
2022-08-17T12:25:29.457Z,27.15
2022-08-17T12:26:28.747Z,27.13
2022-08-17T12:27:46.174Z,27.06
2022-08-17T12:28:30.272Z,26.99
2022-08-17T12:29:35.825Z,26.92
2022-08-17T12:30:29.937Z,27.02
2022-08-17T12:31:31.067Z,27.27
2022-08-17T12:32:28.659Z,27.51
2022-08-17T12:33:29.198Z,27.66
2022-08-17T12:34:28.749Z,27.71
2022-08-17T12:35:29.780Z,27.69
2022-08-17T12:36:28.583Z,27.62
2022-08-17T12:37:28.825Z,27.53
2022-08-17T12:38:32.421Z,27.45
2022-08-17T12:39:29.709Z,27.38
2022-08-17T12:40:29.618Z,27.34
2022-08-17T12:41:28.999Z,27.30
2022-08-17T12:42:28.758Z,27.25
2022-08-17T12:43:29.143Z,27.19
2022-08-17T12:44:28.664Z,27.13
2022-08-17T12:45:28.582Z,27.06
2022-08-17T12:46:28.700Z,27.01
2022-08-17T12:47:29.780Z,26.95
2022-08-17T12:48:28.660Z,26.91
2022-08-17T12:49:28.552Z,26.88
2022-08-17T12:50:30.233Z,26.84
2022-08-17T12:51:29.394Z,26.81
2022-08-17T12:52:28.434Z,26.78
2022-08-17T12:53:29.383Z,26.79
2022-08-17T12:54:28.662Z,26.83